Time;durP1;ratioP1;P1;durP2;ratioP2;P2;SDS_P1;SDS_P2;PMS_P1;PMS_P2;Temp;Humidity;BMP_temperature;BMP_pressure;BME280_temperature;BME280_humidity;BME280_pressure;Samples;Min_cycle;Max_cycle;Signal;HPM_P1;HPM_P2
2022/10/10 00:02:48;;;;;;;1999.90;999.90;;;10.30;99.90;;;;;;6740918;88;20323;-79
2022/10/10 00:12:49;;;;;;;1999.90;999.90;;;10.40;99.90;;;;;;6741260;88;20232;-79
2022/10/10 00:22:49;;;;;;;1999.90;999.90;;;10.30;99.90;;;;;;6742569;88;20527;-79
2022/10/10 00:32:50;;;;;;;1999.90;999.90;;;10.30;99.90;;;;;;6742417;88;20234;-79
2022/10/10 00:42:50;;;;;;;1999.90;999.90;;;10.40;99.90;;;;;;6741746;88;20180;-79
2022/10/10 00:52:52;;;;;;;1999.90;999.90;;;10.40;99.90;;;;;;6738137;88;20680;-79
2022/10/10 01:02:52;;;;;;;1999.90;999.90;;;10.30;99.90;;;;;;6740988;88;20188;-79
2022/10/10 01:13:17;;;;;;;1999.90;999.90;;;10.40;99.90;;;;;;6736856;88;20209;-79
2022/10/10 01:23:44;;;;;;;1999.90;999.90;;;10.20;99.90;;;;;;6741025;88;20242;-79
2022/10/10 01:33:59;;;;;;;1999.90;999.90;;;10.10;99.90;;;;;;6719781;88;20185;-79
2022/10/10 01:44:00;;;;;;;1999.90;999.90;;;10.10;99.90;;;;;;6724869;88;20767;-78
2022/10/10 01:54:36;;;;;;;1999.90;999.90;;;10.00;99.90;;;;;;6723802;88;20375;-79
2022/10/10 02:05:00;;;;;;;1999.90;999.90;;;9.80;99.90;;;;;;6740244;88;21028;-79
2022/10/10 02:15:09;;;;;;;1999.90;999.90;;;9.80;99.90;;;;;;6720844;88;20198;-79
2022/10/10 02:25:11;;;;;;;1999.90;999.90;;;9.70;99.90;;;;;;6723668;88;20232;-79
2022/10/10 02:35:28;;;;;;;1999.90;999.90;;;9.80;99.90;;;;;;6722374;88;20293;-78
2022/10/10 02:45:31;;;;;;;1999.90;999.90;;;9.80;99.90;;;;;;6725310;88;20201;-78
2022/10/10 02:55:32;;;;;;;1999.90;999.90;;;9.90;99.90;;;;;;6725650;88;20303;-78
2022/10/10 03:05:32;;;;;;;1999.90;999.90;;;9.90;99.90;;;;;;6725289;88;20697;-79
2022/10/10 03:15:33;;;;;;;1999.90;999.90;;;9.80;99.90;;;;;;6724689;88;20224;-79
2022/10/10 03:25:33;;;;;;;1999.90;999.90;;;9.60;99.90;;;;;;6721136;88;20213;-79
2022/10/10 03:45:55;;;;;;;1999.90;999.90;;;9.70;99.90;;;;;;6643095;89;20173;-79
2022/10/10 03:55:55;;;;;;;1999.90;999.90;;;9.60;99.90;;;;;;6685405;88;20669;-78
2022/10/10 04:05:56;;;;;;;1999.90;999.90;;;9.50;99.90;;;;;;6685105;88;20226;-77
2022/10/10 04:15:56;;;;;;;1999.90;999.90;;;9.50;99.90;;;;;;6684373;88;20204;-78
2022/10/10 04:25:57;;;;;;;1999.90;999.90;;;9.60;99.90;;;;;;6683629;88;20203;-78
2022/10/10 04:35:57;;;;;;;1999.90;999.90;;;9.60;99.90;;;;;;6686163;88;20663;-77
2022/10/10 04:45:58;;;;;;;1999.90;999.90;;;9.50;99.90;;;;;;6686292;88;20212;-77
2022/10/10 04:55:58;;;;;;;1999.90;999.90;;;9.50;99.90;;;;;;6686734;88;21063;-78
2022/10/10 05:05:59;;;;;;;1999.90;999.90;;;9.50;99.90;;;;;;6683596;88;20191;-77
2022/10/10 05:16:00;;;;;;;1999.90;999.90;;;9.40;99.90;;;;;;6688311;88;20201;-78
2022/10/10 05:26:00;;;;;;;1999.90;999.90;;;9.40;99.90;;;;;;6690334;88;20939;-78
2022/10/10 05:36:12;;;;;;;1999.90;999.90;;;9.30;99.90;;;;;;6684722;88;20336;-79
2022/10/10 05:46:12;;;;;;;1999.90;999.90;;;9.20;99.90;;;;;;6690096;88;21775;-80
2022/10/10 05:56:15;;;;;;;1999.90;999.90;;;9.20;99.90;;;;;;6702353;88;20160;-81
2022/10/10 06:06:16;;;;;;;1999.90;999.90;;;9.10;99.90;;;;;;6699801;88;21306;-80
2022/10/10 06:16:16;;;;;;;1999.90;999.90;;;9.20;99.90;;;;;;6713286;88;20218;-80
2022/10/10 06:26:17;;;;;;;1999.90;999.90;;;9.20;99.90;;;;;;6708114;88;20194;-79
2022/10/10 06:36:18;;;;;;;1999.90;999.90;;;9.20;99.90;;;;;;6703328;88;20195;-79
2022/10/10 06:46:18;;;;;;;1999.90;999.90;;;9.40;99.90;;;;;;6705153;88;20751;-80
2022/10/10 06:56:22;;;;;;;1999.90;999.90;;;9.50;99.90;;;;;;6697142;88;20206;-79
2022/10/10 07:06:22;;;;;;;1999.90;999.90;;;9.70;99.90;;;;;;6685325;88;20526;-79
2022/10/10 07:16:23;;;;;;;1999.90;999.90;;;10.00;99.90;;;;;;6682856;89;20228;-80
2022/10/10 07:26:27;;;;;;;1999.90;999.90;;;10.40;99.90;;;;;;6685190;89;20198;-80
2022/10/10 07:36:27;;;;;;;1999.90;999.90;;;11.00;99.90;;;;;;6681681;89;20313;-79
2022/10/10 07:46:30;;;;;;;1999.90;999.90;;;11.80;99.90;;;;;;6700165;88;20211;-80
2022/10/10 07:56:31;;;;;;;1999.90;999.90;;;12.90;99.90;;;;;;6699538;88;20194;-80
2022/10/10 08:06:31;;;;;;;1999.90;999.90;;;13.30;99.90;;;;;;6699798;88;20194;-79
2022/10/10 08:16:32;;;;;;;1999.90;999.90;;;13.40;99.90;;;;;;6690457;89;20231;-80
2022/10/10 08:26:32;;;;;;;1999.90;999.90;;;14.00;99.90;;;;;;6685131;89;20257;-80
2022/10/10 08:36:33;;;;;;;1999.90;999.90;;;13.90;99.90;;;;;;6690619;88;20328;-81
2022/10/10 08:46:42;;;;;;;1999.90;999.90;;;14.20;99.90;;;;;;6688808;88;20735;-81
2022/10/10 08:56:43;;;;;;;1999.90;999.90;;;14.70;99.90;;;;;;6685188;89;20204;-79
2022/10/10 09:07:17;;;;;;;1999.90;999.90;;;15.20;99.90;;;;;;6696206;88;20225;-79
2022/10/10 09:17:35;;;;;;;1999.90;999.90;;;15.40;99.90;;;;;;6684564;89;20233;-79
2022/10/10 09:37:44;;;;;;;1999.90;999.90;;;16.30;99.90;;;;;;6725820;88;20178;-79
2022/10/10 09:47:54;;;;;;;1999.90;999.90;;;17.40;99.90;;;;;;6711154;88;20228;-78
2022/10/10 09:58:53;;;;;;;1999.90;999.90;;;17.60;99.90;;;;;;6655124;89;20351;-79
2022/10/10 10:08:54;;;;;;;1999.90;999.90;;;17.60;99.90;;;;;;6688053;89;20268;-79
2022/10/10 10:18:56;;;;;;;1999.90;999.90;;;18.60;99.90;;;;;;6705892;88;20226;-79
2022/10/10 10:28:59;;;;;;;1999.90;999.90;;;18.80;99.90;;;;;;6726433;88;20244;-79
2022/10/10 10:40:12;;;;;;;1999.90;999.90;;;19.40;99.90;;;;;;6702922;88;20191;-78
2022/10/10 10:50:46;;;;;;;1999.90;999.90;;;20.70;99.90;;;;;;6694528;88;20193;-79
2022/10/10 11:01:19;;;;;;;;;;;20.20;99.90;;;;;;6728125;88;20262;-78
2022/10/10 11:11:42;;;;;;;1999.90;999.90;;;19.90;99.90;;;;;;6735242;88;20040;-78
2022/10/10 11:21:52;;;;;;;1999.90;999.90;;;20.60;99.90;;;;;;6739353;88;20206;-80
2022/10/10 11:31:56;;;;;;;1999.90;999.90;;;22.50;99.90;;;;;;6725797;88;20891;-79
2022/10/10 11:42:21;;;;;;;1999.90;999.90;;;21.70;99.90;;;;;;6725606;88;20289;-79
2022/10/10 11:52:40;;;;;;;1999.90;999.90;;;21.50;99.90;;;;;;6723930;88;20200;-80
2022/10/10 12:02:43;;;;;;;1999.90;999.90;;;21.00;99.90;;;;;;6722555;88;20185;-79
2022/10/10 12:12:48;;;;;;;1999.90;999.90;;;21.40;99.90;;;;;;6714382;88;20707;-79
2022/10/10 12:23:12;;;;;;;1999.90;999.90;;;21.50;99.90;;;;;;6724186;88;20220;-79
2022/10/10 12:33:21;;;;;;;1999.90;999.90;;;21.30;99.90;;;;;;6723927;88;20215;-79
2022/10/10 12:44:10;;;;;;;1999.90;999.90;;;21.90;99.90;;;;;;6719836;88;20211;-81
2022/10/10 12:54:24;;;;;;;1999.90;999.90;;;21.70;99.90;;;;;;6706141;88;20180;-80
2022/10/10 13:04:27;;;;;;;1999.90;999.90;;;22.00;99.90;;;;;;6718542;88;20242;-80
2022/10/10 13:14:42;;;;;;;1999.90;999.90;;;22.40;99.90;;;;;;6715251;88;20756;-79
2022/10/10 13:24:45;;;;;;;1999.90;999.90;;;22.20;99.90;;;;;;6723387;88;20219;-79
2022/10/10 13:34:52;;;;;;;1999.90;999.90;;;23.00;99.90;;;;;;6722368;88;20740;-80
2022/10/10 13:44:54;;;;;;;1999.90;999.90;;;22.90;99.90;;;;;;6722354;88;20194;-79
2022/10/10 13:55:13;;;;;;;1999.90;999.90;;;23.50;99.90;;;;;;6722937;88;20610;-79
2022/10/10 14:05:25;;;;;;;1999.90;999.90;;;23.80;99.90;;;;;;6718443;88;20436;-80
2022/10/10 14:15:42;;;;;;;1999.90;999.90;;;24.20;99.90;;;;;;6721937;88;20697;-80
2022/10/10 14:25:45;;;;;;;1999.90;999.90;;;24.80;99.40;;;;;;6721453;88;20176;-80
2022/10/10 14:35:48;;;;;;;1999.90;999.90;;;24.50;99.00;;;;;;6724674;88;20218;-79
2022/10/10 14:45:51;;;;;;;1999.90;999.90;;;25.00;98.50;;;;;;6724553;88;20826;-80
2022/10/10 14:55:51;;;;;;;1999.90;999.90;;;24.30;98.50;;;;;;6724863;88;20750;-80
2022/10/10 15:05:52;;;;;;;1999.90;999.90;;;23.20;99.80;;;;;;6724540;88;20281;-79
2022/10/10 15:15:52;;;;;;;1999.90;999.90;;;22.70;99.90;;;;;;6725040;88;20188;-79
2022/10/10 15:25:53;;;;;;;1999.90;999.90;;;22.60;99.90;;;;;;6724366;88;20212;-79
2022/10/10 15:36:34;;;;;;;1999.90;999.90;;;22.10;99.90;;;;;;6706711;77;20212;-80
2022/10/10 15:46:37;;;;;;;1999.90;999.90;;;21.40;99.90;;;;;;6679439;89;20176;-80
2022/10/10 15:56:39;;;;;;;1999.90;999.90;;;21.00;99.90;;;;;;6689307;89;20281;-80
2022/10/10 16:06:39;;;;;;;1999.90;999.90;;;20.40;99.90;;;;;;6677571;89;20192;-80
2022/10/10 16:16:40;;;;;;;1999.90;999.90;;;19.70;99.90;;;;;;6677568;89;20224;-80
2022/10/10 16:26:40;;;;;;;1999.90;999.90;;;19.30;99.90;;;;;;6664299;89;20216;-81
2022/10/10 16:36:41;;;;;;;1999.90;999.90;;;18.90;99.90;;;;;;6669282;89;20791;-81
2022/10/10 16:46:42;;;;;;;1999.90;999.90;;;18.60;99.90;;;;;;6684882;89;20184;-84
2022/10/10 16:56:42;;;;;;;1999.90;999.90;;;18.50;99.90;;;;;;6696535;88;20679;-80
2022/10/10 17:06:43;;;;;;;1999.90;999.90;;;18.10;99.90;;;;;;6688867;89;20531;-80
2022/10/10 17:16:43;;;;;;;1999.90;999.90;;;18.00;99.90;;;;;;6689284;89;20208;-80
2022/10/10 17:26:44;;;;;;;1999.90;999.90;;;17.90;99.90;;;;;;6678629;89;20195;-82
2022/10/10 17:36:45;;;;;;;1999.90;999.90;;;17.70;99.90;;;;;;6687708;89;20734;-81
2022/10/10 17:46:46;;;;;;;1999.90;999.90;;;17.60;99.90;;;;;;6701599;88;20181;-82
2022/10/10 17:56:46;;;;;;;1999.90;999.90;;;17.50;99.90;;;;;;6691418;89;20252;-83
2022/10/10 18:06:47;;;;;;;1999.90;999.90;;;17.40;99.90;;;;;;6690059;89;20191;-81
2022/10/10 18:16:47;;;;;;;1999.90;999.90;;;17.20;99.90;;;;;;6697417;88;20249;-81
2022/10/10 18:26:48;;;;;;;1999.90;999.90;;;17.00;99.90;;;;;;6696373;88;20314;-81
2022/10/10 18:36:49;;;;;;;1999.90;999.90;;;17.00;99.90;;;;;;6692978;89;20238;-82
2022/10/10 18:46:50;;;;;;;1999.90;999.90;;;16.80;99.90;;;;;;6693349;89;20149;-79
2022/10/10 18:56:50;;;;;;;1999.90;999.90;;;16.60;99.90;;;;;;6696359;88;20192;-80
2022/10/10 19:06:51;;;;;;;1999.90;999.90;;;16.50;99.90;;;;;;6693128;89;20196;-80
2022/10/10 19:16:52;;;;;;;1999.90;999.90;;;16.20;99.90;;;;;;6701944;88;20174;-79
2022/10/10 19:26:55;;;;;;;1999.90;999.90;;;16.10;99.90;;;;;;6698808;88;20223;-80
2022/10/10 19:36:57;;;;;;;1999.90;999.90;;;16.10;99.90;;;;;;6708134;88;20308;-83
2022/10/10 19:46:59;;;;;;;1999.90;999.90;;;15.90;99.90;;;;;;6680638;89;20169;-81
2022/10/10 19:57:00;;;;;;;1999.90;999.90;;;15.70;99.90;;;;;;6680431;89;20164;-81
2022/10/10 20:07:06;;;;;;;1999.90;999.90;;;15.30;99.90;;;;;;6680561;89;20179;-81
2022/10/10 20:17:07;;;;;;;1999.90;999.90;;;15.10;99.90;;;;;;6693639;89;20247;-82
2022/10/10 20:27:49;;;;;;;1999.90;999.90;;;14.90;99.90;;;;;;6707229;77;20204;-80
2022/10/10 20:37:49;;;;;;;1999.90;999.90;;;14.70;99.90;;;;;;6732227;88;20203;-80
2022/10/10 20:47:50;;;;;;;1999.90;999.90;;;14.40;99.90;;;;;;6731129;88;20166;-79
2022/10/10 20:57:50;;;;;;;1999.90;999.90;;;14.20;99.90;;;;;;6713837;88;20162;-80
2022/10/10 21:07:51;;;;;;;1999.90;999.90;;;14.20;99.90;;;;;;6714109;88;20198;-81
2022/10/10 21:17:52;;;;;;;1999.90;999.90;;;14.00;99.90;;;;;;6730409;88;20813;-81
2022/10/10 21:37:56;;;;;;;1999.90;999.90;;;13.90;99.90;;;;;;6746609;88;20224;-80
2022/10/10 21:47:57;;;;;;;1999.90;999.90;;;13.90;99.90;;;;;;6730813;88;20273;-80
2022/10/10 21:57:57;;;;;;;1999.90;999.90;;;13.70;99.90;;;;;;6730985;88;20209;-80
2022/10/10 22:07:58;;;;;;;1999.90;999.90;;;13.60;99.90;;;;;;6730291;88;20323;-80
2022/10/10 22:17:58;;;;;;;1999.90;999.90;;;13.60;99.90;;;;;;6732527;88;20193;-81
2022/10/10 22:27:59;;;;;;;1999.90;999.90;;;13.40;99.90;;;;;;6732760;88;20213;-81
2022/10/10 22:38:00;;;;;;;1999.90;999.90;;;13.40;99.90;;;;;;6734037;88;20195;-81
2022/10/10 22:48:01;;;;;;;1999.90;999.90;;;13.10;99.90;;;;;;6732489;88;20201;-81
2022/10/10 22:58:02;;;;;;;1999.90;999.90;;;12.80;99.90;;;;;;6730203;88;20177;-81
2022/10/10 23:08:02;;;;;;;1999.90;999.90;;;12.60;99.90;;;;;;6730472;88;20161;-81
2022/10/10 23:18:03;;;;;;;1999.90;999.90;;;12.40;99.90;;;;;;6730839;88;20315;-80
2022/10/10 23:28:04;;;;;;;1999.90;999.90;;;12.20;99.90;;;;;;6730697;88;20780;-81
2022/10/10 23:38:05;;;;;;;1999.90;999.90;;;11.90;99.90;;;;;;6731619;88;20216;-82
2022/10/10 23:48:06;;;;;;;1999.90;999.90;;;11.70;99.90;;;;;;6731858;88;20182;-82
2022/10/10 23:58:07;;;;;;;1999.90;999.90;;;11.50;99.90;;;;;;6731382;88;20190;-81
